Terminal Aerodrome Forecast
Issued by NWS

Home | Current Version | Previous Version | Text Only | Print | Product List | Glossary On
Versions: 1 2 3 4 5 6 7 8 9 10 11 12 13 14 15
000
FTAK31 PAJN 021700
TAFASI
TAF
PASI 021738Z 0218/0318 14003KT P6SM SCT022 BKN030
     FM022100 24005KT P6SM BKN050 BKN070
     FM030200 27007KT P6SM VCSH OVC070
     FM030500 24006KT P6SM VCSH OVC050
     FM030900 12004KT P6SM -SHRA SCT030 OVC050
     FM031400 15003KT P6SM BKN030 OVC050=

USA.gov is the U.S. government's official web portal to all federal, state and local government web resources and services.